createdAt,value
2018-09-30T00:01:06.931Z,14.43
2018-09-30T00:03:36.600Z,14.10
2018-09-30T00:06:06.405Z,14.00
2018-09-30T00:08:36.326Z,14.33
2018-09-30T00:11:06.105Z,14.30
2018-09-30T00:13:35.780Z,15.07
2018-09-30T00:16:05.525Z,13.23
2018-09-30T00:18:35.285Z,14.03
2018-09-30T00:21:05.110Z,16.20
2018-09-30T00:23:39.836Z,14.10
2018-09-30T00:26:14.113Z,15.57
2018-09-30T00:28:43.776Z,14.07
2018-09-30T00:31:13.409Z,13.90
2018-09-30T00:33:47.969Z,14.40
2018-09-30T00:36:17.659Z,14.50
2018-09-30T00:38:47.367Z,13.57
2018-09-30T00:41:16.962Z,14.10
2018-09-30T00:43:53.175Z,12.27
2018-09-30T00:46:22.788Z,12.23
2018-09-30T00:48:52.543Z,12.13
2018-09-30T00:54:33.021Z,12.23
2018-09-30T00:57:02.813Z,12.20
2018-09-30T00:59:32.611Z,12.00
2018-09-30T01:02:02.209Z,11.60
2018-09-30T01:04:31.990Z,11.97
2018-09-30T01:07:01.700Z,10.67
2018-09-30T01:09:31.337Z,10.70
2018-09-30T01:12:01.248Z,10.83
2018-09-30T01:14:30.688Z,11.23
2018-09-30T01:17:01.143Z,10.77
2018-09-30T01:19:30.839Z,10.70
2018-09-30T01:22:00.485Z,10.30
2018-09-30T01:24:30.238Z,10.53
2018-09-30T01:27:00.004Z,11.17
2018-09-30T01:29:29.644Z,9.30
2018-09-30T01:31:59.495Z,10.57
2018-09-30T01:34:29.163Z,10.57
2018-09-30T01:36:58.725Z,10.63
2018-09-30T01:39:28.490Z,11.37
2018-09-30T01:41:58.280Z,8.57
2018-09-30T01:44:27.889Z,10.63
2018-09-30T01:46:57.675Z,9.03
2018-09-30T01:49:27.370Z,10.07
2018-09-30T01:52:07.543Z,9.80
2018-09-30T01:54:37.341Z,9.83
2018-09-30T01:57:06.996Z,9.33
2018-09-30T01:59:36.833Z,9.97
2018-09-30T02:02:06.521Z,8.87
2018-09-30T02:04:36.393Z,10.27
2018-09-30T02:07:06.960Z,9.83
2018-09-30T02:09:36.602Z,8.73
2018-09-30T02:12:06.180Z,9.37
2018-09-30T02:14:36.029Z,9.67
2018-09-30T02:17:05.698Z,8.63
2018-09-30T02:19:35.572Z,9.40
2018-09-30T02:22:05.856Z,8.97
2018-09-30T02:24:35.603Z,9.40
2018-09-30T02:27:05.173Z,9.03
2018-09-30T02:29:34.818Z,8.17
2018-09-30T02:32:04.525Z,9.00
2018-09-30T02:34:34.720Z,8.97
2018-09-30T02:37:04.353Z,8.57
2018-09-30T02:39:34.002Z,9.07
2018-09-30T02:42:03.921Z,9.00
2018-09-30T02:44:33.636Z,9.50
2018-09-30T02:47:03.943Z,9.10
2018-09-30T02:49:33.525Z,9.53
2018-09-30T02:52:03.244Z,8.83
2018-09-30T02:54:32.982Z,8.97
2018-09-30T02:57:02.647Z,8.50
2018-09-30T02:59:32.421Z,8.20
2018-09-30T03:02:02.074Z,9.40
2018-09-30T03:04:31.719Z,8.30
2018-09-30T03:07:06.495Z,8.93
2018-09-30T03:09:36.203Z,9.10
2018-09-30T03:12:05.905Z,8.50
2018-09-30T03:14:35.529Z,9.17
2018-09-30T03:17:05.264Z,7.37
2018-09-30T03:19:35.123Z,8.47
2018-09-30T03:22:05.024Z,8.40
2018-09-30T03:24:34.732Z,8.90
2018-09-30T03:27:04.476Z,8.80
2018-09-30T03:29:34.141Z,8.90
2018-09-30T03:32:03.823Z,8.17
2018-09-30T03:34:33.718Z,9.17
2018-09-30T03:37:03.428Z,8.23
2018-09-30T03:39:33.258Z,7.87
2018-09-30T03:42:03.223Z,9.00
2018-09-30T03:44:32.702Z,9.10
2018-09-30T03:47:02.480Z,8.17
2018-09-30T03:49:32.040Z,8.23
2018-09-30T03:52:01.736Z,7.67
2018-09-30T03:54:31.505Z,8.87
2018-09-30T03:57:01.024Z,8.20
2018-09-30T03:59:30.674Z,8.13
2018-09-30T04:02:00.377Z,6.70
2018-09-30T04:04:30.054Z,7.27
2018-09-30T04:06:59.888Z,7.40
2018-09-30T04:09:29.832Z,7.40
2018-09-30T04:11:59.478Z,7.50
2018-09-30T04:14:30.033Z,6.83
2018-09-30T04:16:59.768Z,6.40
2018-09-30T04:19:29.569Z,6.30
2018-09-30T04:21:59.239Z,7.17
2018-09-30T04:24:28.994Z,6.10
2018-09-30T04:26:58.512Z,7.17
2018-09-30T04:29:28.190Z,6.47
2018-09-30T04:31:57.883Z,6.43
2018-09-30T04:34:27.506Z,6.90
2018-09-30T04:36:57.071Z,6.17
2018-09-30T04:39:26.699Z,6.33
2018-09-30T04:41:56.390Z,6.10
2018-09-30T04:44:26.051Z,6.30
2018-09-30T04:46:55.675Z,6.03
2018-09-30T04:49:25.846Z,6.30
2018-09-30T04:51:55.538Z,6.23
2018-09-30T04:54:25.250Z,5.30
2018-09-30T04:56:55.532Z,6.00
2018-09-30T04:59:25.290Z,5.70
2018-09-30T05:01:54.948Z,5.10
2018-09-30T05:04:24.762Z,5.40
2018-09-30T05:06:54.502Z,5.50
2018-09-30T05:09:25.005Z,4.90
2018-09-30T05:11:54.679Z,5.20
2018-09-30T05:14:24.192Z,4.70
2018-09-30T05:16:53.884Z,5.00
2018-09-30T05:19:23.546Z,5.10
2018-09-30T05:21:53.261Z,5.00
2018-09-30T05:24:23.049Z,5.53
2018-09-30T05:26:52.649Z,5.30
2018-09-30T05:29:22.371Z,5.37
2018-09-30T05:31:52.048Z,4.77
2018-09-30T05:34:21.702Z,4.70
2018-09-30T05:36:51.299Z,5.23
2018-09-30T05:39:20.998Z,5.00
2018-09-30T05:41:50.654Z,5.20
2018-09-30T05:44:20.380Z,4.97
2018-09-30T05:46:50.048Z,4.40
2018-09-30T05:49:19.803Z,5.00
2018-09-30T05:51:49.717Z,4.43
2018-09-30T05:54:19.525Z,4.50
2018-09-30T05:56:49.112Z,4.97
2018-09-30T05:59:19.239Z,4.50
2018-09-30T06:01:48.847Z,5.23
2018-09-30T06:04:18.437Z,5.07
2018-09-30T06:06:48.044Z,4.57
2018-09-30T06:09:17.887Z,5.10
2018-09-30T06:11:47.984Z,5.00
2018-09-30T06:14:18.022Z,5.10
2018-09-30T06:16:47.541Z,5.27
2018-09-30T06:19:17.979Z,5.90
2018-09-30T06:21:47.571Z,5.20
2018-09-30T06:24:18.305Z,5.30
2018-09-30T06:26:47.937Z,5.13
2018-09-30T06:29:17.612Z,6.43
2018-09-30T06:31:47.532Z,6.90
2018-09-30T06:34:17.097Z,5.37
2018-09-30T06:36:46.950Z,4.50
2018-09-30T06:39:16.415Z,4.60
2018-09-30T06:41:46.127Z,5.30
2018-09-30T06:44:15.708Z,4.97
2018-09-30T06:46:45.289Z,5.63
2018-09-30T06:49:14.843Z,5.33
2018-09-30T06:51:44.475Z,5.53
2018-09-30T06:54:14.388Z,5.50
2018-09-30T06:56:43.883Z,5.50
2018-09-30T06:59:13.635Z,5.00
2018-09-30T07:01:44.313Z,4.93
2018-09-30T07:04:14.038Z,5.70
2018-09-30T07:06:43.634Z,5.60
2018-09-30T07:09:13.449Z,5.17
2018-09-30T07:11:43.864Z,4.87
2018-09-30T07:14:13.642Z,5.53
2018-09-30T07:16:43.467Z,5.03
2018-09-30T07:19:13.058Z,4.73
2018-09-30T07:21:42.731Z,5.20
2018-09-30T07:24:12.591Z,5.83
2018-09-30T07:26:42.258Z,5.40
2018-09-30T07:29:11.928Z,5.50
2018-09-30T07:31:41.904Z,6.60
2018-09-30T07:34:11.549Z,5.50
2018-09-30T07:36:41.016Z,6.23
2018-09-30T07:39:12.303Z,5.60
2018-09-30T07:41:42.039Z,6.20
2018-09-30T07:44:11.830Z,6.13
2018-09-30T07:46:42.425Z,5.60
2018-09-30T07:49:12.102Z,5.83
2018-09-30T07:51:42.187Z,6.20
2018-09-30T07:54:12.026Z,7.40
2018-09-30T07:56:41.733Z,7.67
2018-09-30T07:59:11.311Z,9.40
2018-09-30T08:01:41.063Z,6.13
2018-09-30T08:04:10.920Z,6.70
2018-09-30T08:06:40.440Z,6.87
2018-09-30T08:09:10.541Z,6.77
2018-09-30T08:11:41.058Z,6.60
2018-09-30T08:14:10.760Z,6.53
2018-09-30T08:16:40.359Z,6.70
2018-09-30T08:19:10.269Z,6.67
2018-09-30T08:21:39.928Z,6.83
2018-09-30T08:24:09.832Z,7.10
2018-09-30T08:26:39.410Z,7.13
2018-09-30T08:29:09.128Z,6.87
2018-09-30T08:31:38.836Z,7.00
2018-09-30T08:34:08.540Z,7.50
2018-09-30T08:36:38.061Z,7.10
2018-09-30T08:39:09.541Z,8.53
2018-09-30T08:41:39.123Z,7.87
2018-09-30T08:44:08.765Z,8.10
2018-09-30T08:46:38.600Z,7.53
2018-09-30T08:49:08.389Z,7.70
2018-09-30T08:51:37.966Z,7.50
2018-09-30T08:54:07.948Z,8.17
2018-09-30T08:56:37.634Z,8.00
2018-09-30T08:59:07.414Z,8.07
2018-09-30T09:01:37.245Z,7.63
2018-09-30T09:04:08.196Z,8.33
2018-09-30T09:06:37.802Z,8.27
2018-09-30T09:09:11.193Z,7.97
2018-09-30T09:11:40.680Z,8.37
2018-09-30T09:14:11.060Z,7.63
2018-09-30T09:16:40.799Z,8.57
2018-09-30T09:19:10.451Z,8.30
2018-09-30T09:21:40.086Z,8.93
2018-09-30T09:24:09.656Z,10.20
2018-09-30T09:26:39.433Z,8.53
2018-09-30T09:29:09.099Z,7.80
2018-09-30T09:31:38.888Z,8.83
2018-09-30T09:34:08.575Z,8.57
2018-09-30T09:36:38.154Z,9.03
2018-09-30T09:39:10.312Z,9.03
2018-09-30T09:41:40.254Z,8.40
2018-09-30T09:44:09.916Z,8.90
2018-09-30T09:46:39.675Z,8.97
2018-09-30T09:49:09.290Z,8.50
2018-09-30T09:51:39.216Z,8.87
2018-09-30T09:54:08.807Z,8.43
2018-09-30T09:56:38.423Z,8.60
2018-09-30T09:59:08.390Z,8.83
2018-09-30T10:01:38.153Z,8.60
2018-09-30T10:04:08.879Z,8.53
2018-09-30T10:06:38.525Z,8.37
2018-09-30T10:09:08.227Z,8.90
2018-09-30T10:11:38.026Z,8.90
2018-09-30T10:14:07.854Z,8.27
2018-09-30T10:16:37.642Z,9.13
2018-09-30T10:19:07.296Z,8.60
2018-09-30T10:21:37.701Z,9.93
2018-09-30T10:24:08.289Z,8.67
2018-09-30T10:26:38.242Z,9.23
2018-09-30T10:29:08.001Z,9.30
2018-09-30T10:31:37.798Z,9.40
2018-09-30T10:34:07.464Z,9.97
2018-09-30T10:36:37.352Z,9.47
2018-09-30T10:39:10.162Z,9.63
2018-09-30T10:41:40.192Z,9.80
2018-09-30T10:44:10.179Z,9.17
2018-09-30T10:46:40.004Z,9.57
2018-09-30T10:49:09.715Z,9.50
2018-09-30T10:51:39.387Z,9.27
2018-09-30T10:54:09.107Z,10.60
2018-09-30T10:56:38.800Z,9.67
2018-09-30T10:59:08.739Z,9.87
2018-09-30T11:01:38.406Z,9.27
2018-09-30T11:04:08.103Z,10.00
2018-09-30T11:06:37.915Z,8.90
2018-09-30T11:09:08.189Z,9.03
2018-09-30T11:11:37.988Z,10.00
2018-09-30T11:14:07.700Z,9.60
2018-09-30T11:16:37.398Z,8.67
2018-09-30T11:19:07.095Z,9.40
2018-09-30T11:21:36.742Z,9.63
2018-09-30T11:24:06.294Z,9.97
2018-09-30T11:26:35.911Z,9.03
2018-09-30T11:29:05.602Z,10.00
2018-09-30T11:31:35.155Z,9.60
2018-09-30T11:34:04.764Z,9.73
2018-09-30T11:36:34.668Z,9.03
2018-09-30T11:39:04.495Z,9.77
2018-09-30T11:41:34.156Z,8.83
2018-09-30T11:44:03.956Z,10.23
2018-09-30T11:46:33.651Z,9.53
2018-09-30T11:49:03.462Z,9.30
2018-09-30T11:51:33.016Z,11.23
2018-09-30T11:54:02.847Z,10.07
2018-09-30T11:56:32.534Z,9.27
2018-09-30T11:59:02.379Z,9.53
2018-09-30T12:01:32.188Z,9.97
2018-09-30T12:04:01.649Z,11.50
2018-09-30T12:06:31.356Z,10.10
2018-09-30T12:09:00.926Z,11.37
2018-09-30T12:11:30.598Z,9.87
2018-09-30T12:14:00.465Z,10.23
2018-09-30T12:16:30.231Z,9.63
2018-09-30T12:18:59.943Z,9.97
2018-09-30T12:21:29.709Z,10.10
2018-09-30T12:23:59.450Z,9.03
2018-09-30T12:26:29.093Z,9.50
2018-09-30T12:28:58.678Z,10.03
2018-09-30T12:31:29.365Z,10.27
2018-09-30T12:33:59.064Z,10.23
2018-09-30T12:36:28.823Z,9.93
2018-09-30T12:38:58.618Z,10.47
2018-09-30T12:41:28.181Z,10.83
2018-09-30T12:43:57.820Z,12.07
2018-09-30T12:46:27.468Z,11.33
2018-09-30T12:48:57.035Z,11.13
2018-09-30T12:51:27.050Z,12.00
2018-09-30T12:53:56.696Z,11.47
2018-09-30T12:56:26.516Z,10.50
2018-09-30T12:58:56.208Z,12.77
2018-09-30T13:01:25.747Z,11.77
2018-09-30T13:03:55.266Z,11.77
2018-09-30T13:06:25.120Z,11.50
2018-09-30T13:08:54.901Z,11.60
2018-09-30T13:11:24.663Z,12.17
2018-09-30T13:13:54.290Z,11.20
2018-09-30T13:16:24.873Z,10.50
2018-09-30T13:18:55.401Z,10.20
2018-09-30T13:21:26.681Z,9.70
2018-09-30T13:23:56.371Z,10.43
2018-09-30T13:26:26.167Z,10.00
2018-09-30T13:28:55.848Z,9.80
2018-09-30T13:31:25.802Z,9.83
2018-09-30T13:33:55.644Z,8.87
2018-09-30T13:36:25.419Z,9.63
2018-09-30T13:38:55.111Z,9.30
2018-09-30T13:41:24.914Z,9.77
2018-09-30T13:43:54.497Z,9.60
2018-09-30T13:46:24.248Z,9.47
2018-09-30T13:48:53.733Z,9.40
2018-09-30T13:51:23.691Z,9.80
2018-09-30T13:53:53.331Z,10.17
2018-09-30T13:56:23.040Z,10.00
2018-09-30T13:58:52.873Z,10.67
2018-09-30T14:01:22.742Z,9.77
2018-09-30T14:03:52.509Z,9.77
2018-09-30T14:06:22.301Z,10.93
2018-09-30T14:08:52.106Z,10.37
2018-09-30T14:11:21.714Z,10.73
2018-09-30T14:13:51.575Z,10.00
2018-09-30T14:16:21.307Z,9.67
2018-09-30T14:18:51.122Z,9.73
2018-09-30T14:21:20.764Z,9.67
2018-09-30T14:23:50.624Z,8.67
2018-09-30T14:26:20.500Z,8.83
2018-09-30T14:28:50.249Z,9.60
2018-09-30T14:31:20.097Z,9.17
2018-09-30T14:33:49.761Z,8.83
2018-09-30T14:36:19.377Z,9.03
2018-09-30T14:38:49.128Z,9.10
2018-09-30T14:41:18.895Z,9.60
2018-09-30T14:43:48.393Z,8.57
2018-09-30T14:46:17.912Z,9.10
2018-09-30T14:48:47.758Z,8.83
2018-09-30T14:51:17.429Z,8.83
2018-09-30T14:53:47.231Z,9.00
2018-09-30T14:56:17.029Z,8.80
2018-09-30T14:58:47.884Z,8.47
2018-09-30T15:01:17.951Z,9.03
2018-09-30T15:03:47.453Z,9.23
2018-09-30T15:06:19.538Z,8.67
2018-09-30T15:08:49.688Z,9.20
2018-09-30T15:11:19.598Z,8.90
2018-09-30T15:13:49.310Z,8.27
2018-09-30T15:16:19.211Z,8.37
2018-09-30T15:18:48.988Z,9.47
2018-09-30T15:21:18.734Z,8.63
2018-09-30T15:23:48.576Z,8.50
2018-09-30T15:26:18.430Z,8.60
2018-09-30T15:28:48.262Z,9.30
2018-09-30T15:31:17.894Z,8.73
2018-09-30T15:33:47.916Z,8.43
2018-09-30T15:36:17.717Z,8.80
2018-09-30T15:38:47.797Z,8.80
2018-09-30T15:41:17.650Z,9.67
2018-09-30T15:43:47.697Z,8.73
2018-09-30T15:46:17.270Z,8.90
2018-09-30T15:48:46.902Z,9.60
2018-09-30T15:51:17.503Z,9.60
2018-09-30T15:53:46.941Z,9.40
2018-09-30T15:56:16.458Z,9.97
2018-09-30T15:58:46.295Z,9.67
2018-09-30T16:01:16.085Z,10.47
2018-09-30T16:03:45.823Z,10.70
2018-09-30T16:06:15.693Z,10.60
2018-09-30T16:08:45.473Z,11.07
2018-09-30T16:11:15.310Z,11.67
2018-09-30T16:13:44.939Z,10.93
2018-09-30T16:16:14.970Z,10.33
2018-09-30T16:18:44.428Z,11.47
2018-09-30T16:21:14.353Z,11.57
2018-09-30T16:23:44.113Z,11.63
2018-09-30T16:26:13.708Z,11.53
2018-09-30T16:28:43.401Z,11.80
2018-09-30T16:31:13.428Z,11.43
2018-09-30T16:33:43.378Z,10.87
2018-09-30T16:36:12.972Z,10.97
2018-09-30T16:38:42.740Z,11.63
2018-09-30T16:41:12.518Z,12.93
2018-09-30T16:43:42.406Z,15.00
2018-09-30T16:46:12.020Z,15.10
2018-09-30T16:48:41.775Z,14.47
2018-09-30T16:51:11.741Z,15.97
2018-09-30T16:53:41.513Z,15.70
2018-09-30T16:56:11.307Z,17.47
2018-09-30T16:58:41.245Z,19.10
2018-09-30T17:01:11.087Z,17.77
2018-09-30T17:03:40.859Z,16.90
2018-09-30T17:06:10.477Z,15.30
2018-09-30T17:08:40.319Z,14.57
2018-09-30T17:11:10.019Z,13.90
2018-09-30T17:13:39.618Z,14.13
2018-09-30T17:16:09.524Z,14.87
2018-09-30T17:18:39.383Z,16.13
2018-09-30T17:21:09.077Z,15.53
2018-09-30T17:23:38.665Z,17.27
2018-09-30T17:26:08.551Z,16.73
2018-09-30T17:28:38.374Z,16.63
2018-09-30T17:31:08.218Z,18.13
2018-09-30T17:33:37.904Z,20.23
2018-09-30T17:36:07.687Z,19.30
2018-09-30T17:38:37.405Z,20.90
2018-09-30T17:41:07.032Z,19.90
2018-09-30T17:43:36.897Z,19.93
2018-09-30T17:46:06.653Z,21.67
2018-09-30T17:48:36.265Z,22.13
2018-09-30T17:51:05.996Z,22.03
2018-09-30T17:53:36.018Z,19.80
2018-09-30T17:56:05.784Z,19.63
2018-09-30T17:58:35.223Z,19.87
2018-09-30T18:01:04.615Z,19.17
2018-09-30T18:03:34.275Z,20.07
2018-09-30T18:06:04.153Z,21.57
2018-09-30T18:08:34.156Z,19.77
2018-09-30T18:11:03.824Z,19.97
2018-09-30T18:13:33.483Z,20.33
2018-09-30T18:16:03.273Z,20.70
2018-09-30T18:18:32.947Z,20.33
2018-09-30T18:21:02.618Z,20.10
2018-09-30T18:23:32.354Z,20.37
2018-09-30T18:26:02.216Z,19.93
2018-09-30T18:28:31.797Z,21.03
2018-09-30T18:31:01.547Z,20.47
2018-09-30T18:33:31.052Z,21.70
2018-09-30T18:36:00.941Z,21.40
2018-09-30T18:38:30.573Z,20.20
2018-09-30T18:41:00.270Z,20.07
2018-09-30T18:43:30.091Z,19.60
2018-09-30T18:46:00.578Z,20.67
2018-09-30T18:48:31.448Z,20.60
2018-09-30T18:51:01.104Z,19.13
2018-09-30T18:53:30.839Z,19.10
2018-09-30T18:56:00.493Z,18.83
2018-09-30T18:58:30.195Z,18.87
2018-09-30T19:00:59.697Z,18.90
2018-09-30T19:03:29.196Z,17.33
2018-09-30T19:05:59.703Z,17.37
2018-09-30T19:08:29.260Z,17.37
2018-09-30T19:10:59.139Z,17.37
2018-09-30T19:13:29.115Z,17.27
2018-09-30T19:15:58.915Z,16.33
2018-09-30T19:18:28.426Z,15.93
2018-09-30T19:20:57.967Z,15.50
2018-09-30T19:23:27.567Z,16.73
2018-09-30T19:25:57.120Z,16.37
2018-09-30T19:28:26.964Z,15.40
2018-09-30T19:30:56.674Z,16.13
2018-09-30T19:33:26.280Z,16.07
2018-09-30T19:35:55.809Z,15.17
2018-09-30T19:38:25.570Z,14.73
2018-09-30T19:40:55.330Z,15.10
2018-09-30T19:43:25.779Z,15.77
2018-09-30T19:45:55.570Z,14.50
2018-09-30T19:48:25.410Z,15.43
2018-09-30T19:50:55.171Z,15.30
2018-09-30T19:53:24.794Z,14.87
2018-09-30T19:55:54.550Z,14.83
2018-09-30T19:58:24.200Z,15.23
2018-09-30T20:00:53.836Z,14.30
2018-09-30T20:03:23.691Z,13.70
2018-09-30T20:05:53.417Z,13.93
2018-09-30T20:08:23.767Z,13.90
2018-09-30T20:10:53.536Z,15.33
2018-09-30T20:13:23.108Z,15.00
2018-09-30T20:15:52.831Z,14.77
2018-09-30T20:18:22.473Z,13.73
2018-09-30T20:20:52.169Z,13.80
2018-09-30T20:23:21.751Z,13.70
2018-09-30T20:25:51.622Z,13.80
2018-09-30T20:28:21.522Z,14.37
2018-09-30T20:30:51.516Z,13.53
2018-09-30T20:33:21.237Z,13.47
2018-09-30T20:35:50.884Z,14.00
2018-09-30T20:38:20.522Z,13.90
2018-09-30T20:40:50.215Z,13.40
2018-09-30T20:43:19.740Z,14.60
2018-09-30T20:45:49.654Z,12.70
2018-09-30T20:48:19.304Z,14.03
2018-09-30T20:50:48.916Z,13.20
2018-09-30T20:53:18.428Z,12.67
2018-09-30T20:55:48.097Z,13.67
2018-09-30T20:58:17.820Z,12.80
2018-09-30T21:00:47.443Z,14.33
2018-09-30T21:03:17.064Z,13.77
2018-09-30T21:06:13.262Z,13.03
2018-09-30T21:08:43.252Z,12.73
2018-09-30T21:11:12.738Z,13.87
2018-09-30T21:13:42.818Z,13.47
2018-09-30T21:16:12.688Z,12.90
2018-09-30T21:18:43.581Z,12.93
2018-09-30T21:21:13.585Z,12.57
2018-09-30T21:23:43.739Z,13.70
2018-09-30T21:26:13.322Z,13.93
2018-09-30T21:28:43.033Z,13.30
2018-09-30T21:31:12.764Z,13.10
2018-09-30T21:33:43.062Z,12.40
2018-09-30T21:36:13.879Z,13.53
2018-09-30T21:38:43.568Z,12.77
2018-09-30T21:41:13.815Z,12.60
2018-09-30T21:43:43.638Z,14.27
2018-09-30T21:46:13.088Z,14.33
2018-09-30T21:48:42.882Z,14.30
2018-09-30T21:51:12.571Z,13.20
2018-09-30T21:53:42.166Z,12.97
2018-09-30T21:56:11.864Z,12.83
2018-09-30T21:58:41.588Z,13.03
2018-09-30T22:01:11.199Z,12.03
2018-09-30T22:03:41.102Z,12.37
2018-09-30T22:06:10.939Z,13.40
2018-09-30T22:08:40.716Z,12.50
2018-09-30T22:11:10.403Z,12.37
2018-09-30T22:13:40.533Z,11.47
2018-09-30T22:16:10.439Z,12.20
2018-09-30T22:18:40.113Z,13.03
2018-09-30T22:21:09.868Z,12.80
2018-09-30T22:23:39.591Z,13.40
2018-09-30T22:26:09.293Z,12.63
2018-09-30T22:28:39.000Z,11.97
2018-09-30T22:31:08.707Z,12.17
2018-09-30T22:33:38.168Z,11.80
2018-09-30T22:36:07.812Z,12.50
2018-09-30T22:38:37.392Z,12.03
2018-09-30T22:41:07.033Z,12.30
2018-09-30T22:43:37.824Z,12.07
2018-09-30T22:46:07.381Z,11.90
2018-09-30T22:48:37.169Z,12.10
2018-09-30T22:51:06.993Z,12.47
2018-09-30T22:53:36.912Z,12.70
2018-09-30T22:56:06.695Z,11.97
2018-09-30T22:58:36.480Z,13.17
2018-09-30T23:01:06.223Z,12.13
2018-09-30T23:03:35.965Z,12.07
2018-09-30T23:06:05.517Z,11.83
2018-09-30T23:08:35.610Z,11.27
2018-09-30T23:11:05.343Z,11.80
2018-09-30T23:13:35.087Z,11.23
2018-09-30T23:16:05.063Z,11.97
2018-09-30T23:18:35.556Z,11.73
2018-09-30T23:21:05.177Z,12.77
2018-09-30T23:23:34.928Z,12.60
2018-09-30T23:26:04.774Z,12.03
2018-09-30T23:28:34.572Z,11.67
2018-09-30T23:31:04.375Z,12.90
2018-09-30T23:33:34.014Z,11.87
2018-09-30T23:36:03.682Z,12.30
2018-09-30T23:38:33.439Z,12.43
2018-09-30T23:41:03.221Z,11.90
2018-09-30T23:43:32.787Z,12.37
2018-09-30T23:46:02.456Z,12.27
2018-09-30T23:48:32.219Z,11.37
2018-09-30T23:51:02.056Z,12.60
2018-09-30T23:53:31.728Z,13.10
2018-09-30T23:56:01.609Z,12.27
2018-09-30T23:58:31.241Z,12.00
